createdAt,value
2022-09-27T00:01:06.482Z,1.55
2022-09-27T00:03:33.295Z,1.15
2022-09-27T00:06:16.700Z,3.03
2022-09-27T00:08:43.613Z,1.55
2022-09-27T00:11:22.414Z,1.48
2022-09-27T00:13:48.839Z,1.77
2022-09-27T00:16:15.338Z,1.48
2022-09-27T00:18:42.268Z,2.03
2022-09-27T00:21:12.167Z,1.95
2022-09-27T00:23:39.479Z,1.90
2022-09-27T00:26:07.178Z,1.60
2022-09-27T00:28:34.037Z,2.05
2022-09-27T00:31:01.552Z,1.67
2022-09-27T00:33:28.500Z,2.20
2022-09-27T00:35:55.144Z,2.00
2022-09-27T00:38:21.783Z,2.28
2022-09-27T00:40:48.656Z,1.55
2022-09-27T00:43:18.706Z,2.13
2022-09-27T00:45:59.733Z,1.90
2022-09-27T00:48:30.066Z,2.00
2022-09-27T00:51:01.475Z,2.45
2022-09-27T00:53:33.682Z,2.03
2022-09-27T00:56:05.368Z,1.92
2022-09-27T01:01:07.377Z,2.38
2022-09-27T01:03:44.272Z,2.35
2022-09-27T01:06:12.307Z,1.85
2022-09-27T01:08:39.301Z,2.55
2022-09-27T01:11:28.312Z,2.20
2022-09-27T01:14:24.969Z,2.35
2022-09-27T01:17:25.424Z,1.80
2022-09-27T01:20:39.619Z,1.80
2022-09-27T01:23:43.751Z,2.42
2022-09-27T01:26:28.220Z,2.00
2022-09-27T01:29:07.785Z,1.95
2022-09-27T01:31:55.190Z,2.08
2022-09-27T01:34:32.144Z,2.10
2022-09-27T01:37:29.202Z,1.90
2022-09-27T01:40:38.499Z,2.40
2022-09-27T01:43:34.924Z,2.17
2022-09-27T01:46:07.040Z,2.33
2022-09-27T01:49:18.119Z,2.00
2022-09-27T01:51:54.860Z,2.33
2022-09-27T01:54:29.222Z,2.75
2022-09-27T01:57:16.504Z,2.30
2022-09-27T01:59:49.477Z,2.35
2022-09-27T02:02:48.010Z,2.08
2022-09-27T02:05:40.638Z,2.10
2022-09-27T02:11:09.675Z,2.28
2022-09-27T02:14:05.028Z,1.52
2022-09-27T02:17:25.368Z,1.73
2022-09-27T02:20:10.903Z,1.30
2022-09-27T02:23:21.283Z,1.33
2022-09-27T02:25:58.394Z,1.00
2022-09-27T02:28:30.820Z,1.10
2022-09-27T02:30:57.788Z,1.88
2022-09-27T02:33:34.282Z,1.02
2022-09-27T02:36:01.341Z,1.17
2022-09-27T02:38:28.951Z,1.08
2022-09-27T02:40:57.317Z,1.45
2022-09-27T02:43:27.905Z,1.30
2022-09-27T02:46:31.615Z,1.48
2022-09-27T02:49:09.618Z,1.27
2022-09-27T02:51:52.257Z,1.42
2022-09-27T02:54:56.471Z,1.08
2022-09-27T02:57:57.453Z,1.17
2022-09-27T03:00:52.893Z,1.10
2022-09-27T03:04:28.160Z,1.20
2022-09-27T03:06:56.533Z,0.90
2022-09-27T03:09:28.760Z,1.10
2022-09-27T03:11:55.696Z,1.20
2022-09-27T03:14:22.067Z,0.90
2022-09-27T03:16:59.301Z,1.33
2022-09-27T03:19:49.311Z,0.95
2022-09-27T03:22:37.697Z,0.88
2022-09-27T03:25:06.075Z,0.98
2022-09-27T03:27:32.812Z,1.10
2022-09-27T03:29:59.535Z,0.90
2022-09-27T03:32:27.073Z,1.05
2022-09-27T03:35:19.435Z,1.13
2022-09-27T03:37:47.136Z,1.05
2022-09-27T03:40:13.812Z,0.93
2022-09-27T03:42:40.245Z,0.90
2022-09-27T03:45:07.569Z,1.10
2022-09-27T03:47:34.243Z,1.25
2022-09-27T03:50:01.398Z,1.20
2022-09-27T03:52:27.747Z,1.00
2022-09-27T03:54:56.359Z,0.98
2022-09-27T03:57:26.507Z,0.70
2022-09-27T03:59:53.441Z,0.90
2022-09-27T04:02:40.656Z,0.88
2022-09-27T04:05:22.130Z,0.90
2022-09-27T04:07:49.581Z,1.00
2022-09-27T04:10:17.872Z,1.10
2022-09-27T04:12:45.066Z,0.98
2022-09-27T04:15:12.282Z,0.70
2022-09-27T04:17:51.407Z,0.75
2022-09-27T04:20:29.927Z,1.13
2022-09-27T04:22:57.775Z,0.90
2022-09-27T04:25:24.600Z,0.60
2022-09-27T04:27:54.784Z,0.50
2022-09-27T04:30:22.668Z,0.55
2022-09-27T04:33:08.974Z,0.60
2022-09-27T04:36:02.455Z,0.93
2022-09-27T04:38:34.992Z,0.77
2022-09-27T04:41:02.075Z,0.80
2022-09-27T04:43:32.642Z,0.75
2022-09-27T04:45:59.320Z,0.60
2022-09-27T04:48:26.263Z,0.50
2022-09-27T04:51:02.405Z,0.50
2022-09-27T04:53:29.833Z,0.70
2022-09-27T04:55:57.546Z,0.70
2022-09-27T04:58:25.229Z,1.25
2022-09-27T05:00:55.780Z,0.77
2022-09-27T05:03:45.006Z,1.13
2022-09-27T05:06:13.524Z,0.80
2022-09-27T05:08:40.651Z,0.93
2022-09-27T05:11:23.670Z,0.82
2022-09-27T05:17:12.503Z,1.00
2022-09-27T05:19:50.768Z,1.00
2022-09-27T05:22:31.646Z,0.80
2022-09-27T05:24:58.090Z,1.20
2022-09-27T05:27:24.889Z,0.90
2022-09-27T05:29:51.552Z,1.00
2022-09-27T05:32:22.372Z,1.17
2022-09-27T05:34:54.201Z,1.20
2022-09-27T05:37:21.018Z,1.08
2022-09-27T05:39:47.677Z,1.10
2022-09-27T05:42:15.442Z,1.20
2022-09-27T05:44:47.003Z,1.15
2022-09-27T05:47:15.628Z,0.93
2022-09-27T05:49:42.174Z,1.20
2022-09-27T05:52:15.014Z,1.10
2022-09-27T05:54:43.201Z,1.17
2022-09-27T05:57:09.562Z,1.30
2022-09-27T05:59:58.520Z,1.00
2022-09-27T06:02:45.146Z,1.10
2022-09-27T06:05:35.755Z,1.00
2022-09-27T06:08:35.899Z,1.10
2022-09-27T06:11:12.433Z,1.13
2022-09-27T06:13:39.338Z,1.13
2022-09-27T06:16:07.086Z,1.40
2022-09-27T06:18:35.566Z,1.13
2022-09-27T06:21:03.564Z,0.70
2022-09-27T06:23:33.983Z,0.77
2022-09-27T06:26:09.507Z,0.80
2022-09-27T06:28:48.400Z,0.70
2022-09-27T06:31:15.495Z,1.40
2022-09-27T06:34:01.508Z,1.17
2022-09-27T06:36:29.502Z,0.88
2022-09-27T06:38:55.982Z,1.13
2022-09-27T06:41:29.553Z,1.00
2022-09-27T06:44:05.223Z,0.88
2022-09-27T06:47:06.581Z,0.70
2022-09-27T06:49:55.099Z,0.50
2022-09-27T06:52:22.491Z,0.63
2022-09-27T06:54:48.941Z,0.90
2022-09-27T06:57:35.385Z,0.60
2022-09-27T07:00:22.115Z,0.80
2022-09-27T07:03:03.855Z,0.88
2022-09-27T07:06:01.809Z,0.80
2022-09-27T07:08:40.128Z,1.17
2022-09-27T07:11:07.566Z,0.70
2022-09-27T07:13:37.143Z,1.02
2022-09-27T07:16:03.648Z,0.70
2022-09-27T07:18:30.276Z,0.80
2022-09-27T07:21:00.744Z,1.00
2022-09-27T07:23:28.018Z,0.90
2022-09-27T07:25:54.784Z,1.08
2022-09-27T07:28:22.353Z,0.88
2022-09-27T07:30:55.411Z,1.58
2022-09-27T07:33:22.041Z,0.95
2022-09-27T07:35:48.457Z,0.70
2022-09-27T07:38:15.180Z,0.80
2022-09-27T07:40:42.440Z,1.27
2022-09-27T07:43:12.265Z,1.10
2022-09-27T07:45:39.228Z,0.90
2022-09-27T07:48:15.187Z,1.30
2022-09-27T07:50:59.925Z,1.42
2022-09-27T07:53:44.314Z,0.95
2022-09-27T07:56:29.633Z,1.25
2022-09-27T07:58:56.876Z,1.23
2022-09-27T08:01:23.636Z,1.90
2022-09-27T08:03:50.144Z,1.75
2022-09-27T08:06:19.014Z,2.08
2022-09-27T08:08:47.359Z,2.50
2022-09-27T08:11:16.095Z,2.10
2022-09-27T08:13:45.882Z,1.70
2022-09-27T08:16:14.154Z,1.60
2022-09-27T08:18:59.642Z,1.30
2022-09-27T08:21:44.925Z,2.53
2022-09-27T08:24:15.076Z,2.88
2022-09-27T08:27:10.722Z,1.67
2022-09-27T08:29:50.638Z,1.00
2022-09-27T08:32:20.810Z,1.10
2022-09-27T08:34:49.625Z,2.28
2022-09-27T08:37:15.997Z,2.60
2022-09-27T08:39:45.655Z,2.20
2022-09-27T08:42:45.392Z,1.77
2022-09-27T08:45:18.540Z,2.35
2022-09-27T08:47:52.909Z,2.05
2022-09-27T08:50:27.934Z,2.13
2022-09-27T08:53:04.601Z,1.75
2022-09-27T08:55:51.604Z,1.25
2022-09-27T08:58:53.520Z,1.10
2022-09-27T09:01:28.651Z,1.88
2022-09-27T09:04:04.290Z,3.50
2022-09-27T09:06:42.269Z,5.55
2022-09-27T09:09:37.182Z,5.15
2022-09-27T09:12:46.061Z,4.78
2022-09-27T09:15:20.845Z,5.35
2022-09-27T09:18:18.713Z,5.28
2022-09-27T09:21:11.536Z,6.47
2022-09-27T09:23:47.374Z,5.93
2022-09-27T09:26:22.608Z,4.85
2022-09-27T09:29:22.748Z,3.47
2022-09-27T09:32:14.994Z,2.08
2022-09-27T09:35:03.730Z,1.60
2022-09-27T09:37:38.729Z,0.90
2022-09-27T09:40:23.499Z,1.38
2022-09-27T09:43:12.746Z,1.00
2022-09-27T09:45:45.503Z,0.75
2022-09-27T09:48:39.297Z,0.85
2022-09-27T09:51:11.897Z,1.08
2022-09-27T09:53:44.608Z,0.70
2022-09-27T09:56:20.416Z,0.82
2022-09-27T09:58:53.429Z,0.88
2022-09-27T10:01:28.263Z,0.65
2022-09-27T10:03:57.030Z,0.90
2022-09-27T10:06:25.853Z,1.00
2022-09-27T10:08:54.818Z,0.85
2022-09-27T10:11:46.258Z,0.85
2022-09-27T10:14:20.727Z,1.00
2022-09-27T10:16:57.404Z,1.00
2022-09-27T10:19:32.977Z,1.55
2022-09-27T10:22:12.577Z,1.10
2022-09-27T10:25:01.817Z,1.00
2022-09-27T10:27:52.943Z,1.10
2022-09-27T10:30:24.729Z,1.00
2022-09-27T10:32:53.725Z,1.30
2022-09-27T10:35:43.294Z,0.82
2022-09-27T10:38:21.664Z,1.10
2022-09-27T10:40:50.861Z,1.00
2022-09-27T10:43:33.766Z,0.70
2022-09-27T10:46:26.880Z,0.70
2022-09-27T10:49:28.012Z,1.75
2022-09-27T10:52:00.070Z,0.70
2022-09-27T10:54:33.296Z,0.60
2022-09-27T10:57:04.751Z,0.90
2022-09-27T10:59:39.541Z,1.25
2022-09-27T11:02:16.132Z,0.90
2022-09-27T11:05:16.099Z,1.15
2022-09-27T11:07:56.628Z,0.80
2022-09-27T11:10:37.780Z,1.20
2022-09-27T11:15:57.696Z,1.35
2022-09-27T11:18:35.365Z,1.13
2022-09-27T11:21:31.715Z,1.48
2022-09-27T11:24:10.959Z,1.85
2022-09-27T11:27:00.490Z,1.08
2022-09-27T11:30:05.260Z,1.40
2022-09-27T11:33:20.226Z,1.25
2022-09-27T11:36:02.702Z,1.40
2022-09-27T11:38:52.802Z,1.00
2022-09-27T11:41:37.491Z,1.03
2022-09-27T11:44:31.579Z,1.13
2022-09-27T11:47:30.237Z,1.25
2022-09-27T11:50:32.132Z,1.20
2022-09-27T11:53:26.726Z,0.85
2022-09-27T11:56:05.704Z,0.98
2022-09-27T11:58:58.431Z,0.77
2022-09-27T12:01:34.030Z,0.82
2022-09-27T12:04:09.797Z,1.02
2022-09-27T12:06:54.924Z,0.85
2022-09-27T12:09:30.565Z,0.90
2022-09-27T12:12:12.812Z,1.10
2022-09-27T12:14:45.275Z,1.50
2022-09-27T12:17:16.460Z,1.67
2022-09-27T12:19:56.570Z,1.83
2022-09-27T12:22:58.183Z,1.45
2022-09-27T12:25:41.177Z,1.17
2022-09-27T12:28:28.389Z,0.88
2022-09-27T12:31:27.528Z,0.70
2022-09-27T12:33:57.705Z,0.93
2022-09-27T12:36:31.323Z,1.15
2022-09-27T12:39:18.672Z,1.05
2022-09-27T12:42:01.062Z,1.17
2022-09-27T12:44:40.855Z,0.80
2022-09-27T12:47:26.886Z,1.00
2022-09-27T12:50:21.934Z,1.08
2022-09-27T12:52:56.489Z,0.80
2022-09-27T12:55:41.365Z,0.95
2022-09-27T12:58:16.832Z,0.82
2022-09-27T13:00:55.998Z,0.93
2022-09-27T13:03:44.280Z,0.98
2022-09-27T13:06:35.768Z,0.93
2022-09-27T13:09:30.840Z,1.00
2022-09-27T13:12:10.926Z,0.88
2022-09-27T13:14:45.526Z,1.05
2022-09-27T13:17:46.222Z,1.90
2022-09-27T13:20:31.032Z,4.40
2022-09-27T13:22:59.985Z,8.80
2022-09-27T13:25:56.210Z,4.13
2022-09-27T13:28:49.382Z,2.35
2022-09-27T13:31:53.298Z,2.53
2022-09-27T13:34:46.418Z,2.05
2022-09-27T13:37:45.206Z,2.35
2022-09-27T13:40:15.787Z,3.63
2022-09-27T13:43:11.393Z,3.30
2022-09-27T13:45:59.240Z,2.80
2022-09-27T13:48:47.198Z,3.17
2022-09-27T13:51:51.462Z,3.60
2022-09-27T13:54:49.754Z,3.40
2022-09-27T13:57:37.545Z,3.60
2022-09-27T14:00:09.063Z,2.95
2022-09-27T14:03:16.750Z,3.25
2022-09-27T14:05:52.161Z,3.75
2022-09-27T14:08:30.163Z,3.50
2022-09-27T14:10:58.549Z,3.45
2022-09-27T14:13:27.043Z,4.35
2022-09-27T14:16:04.899Z,3.85
2022-09-27T14:18:37.919Z,4.85
2022-09-27T14:21:29.814Z,3.78
2022-09-27T14:24:26.339Z,3.47
2022-09-27T14:27:12.715Z,3.20
2022-09-27T14:29:46.627Z,2.38
2022-09-27T14:32:19.168Z,1.77
2022-09-27T14:35:31.528Z,1.20
2022-09-27T14:38:07.597Z,2.03
2022-09-27T14:40:53.190Z,2.60
2022-09-27T14:43:20.882Z,2.70
2022-09-27T14:45:51.400Z,2.55
2022-09-27T14:48:23.932Z,1.90
2022-09-27T14:51:04.987Z,4.88
2022-09-27T14:53:36.081Z,6.05
2022-09-27T14:56:03.418Z,3.88
2022-09-27T14:58:46.551Z,9.32
2022-09-27T15:01:20.055Z,13.50
2022-09-27T15:03:48.947Z,10.52
2022-09-27T15:06:20.005Z,9.63
2022-09-27T15:08:49.455Z,9.00
2022-09-27T15:11:19.107Z,13.35
2022-09-27T15:13:51.073Z,19.45
2022-09-27T15:16:20.705Z,17.88
2022-09-27T15:18:50.414Z,13.93
2022-09-27T15:21:31.105Z,13.43
2022-09-27T15:23:59.173Z,11.98
2022-09-27T15:26:34.393Z,14.65
2022-09-27T15:29:01.142Z,17.80
2022-09-27T15:31:35.780Z,11.45
2022-09-27T15:34:06.857Z,7.07
2022-09-27T15:36:52.825Z,3.50
2022-09-27T15:39:26.236Z,4.40
2022-09-27T15:42:17.354Z,4.32
2022-09-27T15:44:46.873Z,4.00
2022-09-27T15:47:31.917Z,4.20
2022-09-27T15:49:59.389Z,3.88
2022-09-27T15:52:43.858Z,3.22
2022-09-27T15:55:17.990Z,1.83
2022-09-27T15:57:47.563Z,1.90
2022-09-27T16:00:18.775Z,1.65
2022-09-27T16:05:12.290Z,2.25
2022-09-27T16:07:38.734Z,1.65
2022-09-27T16:10:16.703Z,1.60
2022-09-27T16:12:44.523Z,1.30
2022-09-27T16:15:15.055Z,1.80
2022-09-27T16:17:42.660Z,1.58
2022-09-27T16:20:23.074Z,1.60
2022-09-27T16:22:49.546Z,2.10
2022-09-27T16:25:15.936Z,1.67
2022-09-27T16:27:42.497Z,1.67
2022-09-27T16:30:09.457Z,1.50
2022-09-27T16:32:44.015Z,2.22
2022-09-27T16:35:12.148Z,1.70
2022-09-27T16:37:38.594Z,2.70
2022-09-27T16:40:08.235Z,6.65
2022-09-27T16:42:35.513Z,5.20
2022-09-27T16:45:06.007Z,4.95
2022-09-27T16:47:35.501Z,6.75
2022-09-27T16:50:21.049Z,8.45
2022-09-27T16:52:49.876Z,21.38
2022-09-27T16:55:21.049Z,21.17
2022-09-27T17:00:18.078Z,3.88
2022-09-27T17:02:48.498Z,2.60
2022-09-27T17:05:15.472Z,3.25
2022-09-27T17:07:42.386Z,3.90
2022-09-27T17:10:09.326Z,3.88
2022-09-27T17:12:35.840Z,3.50
2022-09-27T17:15:02.252Z,2.80
2022-09-27T17:17:28.597Z,4.15
2022-09-27T17:19:55.004Z,16.05
2022-09-27T17:22:21.378Z,13.80
2022-09-27T17:24:47.766Z,7.90
2022-09-27T17:27:14.133Z,5.40
2022-09-27T17:29:40.509Z,5.93
2022-09-27T17:32:08.609Z,9.40
2022-09-27T17:34:36.082Z,9.32
2022-09-27T17:37:02.539Z,11.88
2022-09-27T17:39:28.930Z,12.18
2022-09-27T17:41:55.339Z,7.65
2022-09-27T17:44:23.533Z,4.38
2022-09-27T17:47:09.891Z,4.90
2022-09-27T17:50:11.392Z,10.23
2022-09-27T17:55:04.928Z,7.75
2022-09-27T17:57:31.700Z,9.10
2022-09-27T17:59:58.169Z,10.63
2022-09-27T18:02:25.639Z,10.23
2022-09-27T18:04:52.119Z,19.10
2022-09-27T18:07:19.668Z,13.43
2022-09-27T18:09:46.054Z,9.15
2022-09-27T18:12:13.806Z,5.35
2022-09-27T18:14:40.382Z,3.88
2022-09-27T18:17:07.089Z,4.32
2022-09-27T18:19:33.490Z,10.55
2022-09-27T18:22:00.692Z,9.90
2022-09-27T18:24:27.085Z,7.10
2022-09-27T18:26:55.653Z,13.93
2022-09-27T18:29:23.230Z,9.73
2022-09-27T18:31:49.702Z,8.70
2022-09-27T18:34:19.497Z,8.27
2022-09-27T18:36:46.564Z,7.43
2022-09-27T18:39:17.245Z,4.97
2022-09-27T18:41:43.708Z,4.68
2022-09-27T18:44:13.383Z,3.47
2022-09-27T18:46:39.904Z,4.32
2022-09-27T18:49:11.521Z,4.15
2022-09-27T18:51:41.942Z,4.97
2022-09-27T18:54:13.841Z,5.43
2022-09-27T18:56:41.045Z,3.92
2022-09-27T18:59:09.032Z,4.22
2022-09-27T19:01:41.555Z,4.43
2022-09-27T19:04:09.182Z,4.78
2022-09-27T19:06:36.822Z,3.83
2022-09-27T19:09:04.698Z,3.72
2022-09-27T19:11:31.733Z,5.30
2022-09-27T19:13:58.701Z,4.00
2022-09-27T19:16:27.187Z,5.13
2022-09-27T19:18:54.008Z,4.05
2022-09-27T19:21:23.433Z,3.60
2022-09-27T19:23:51.153Z,2.90
2022-09-27T19:26:20.289Z,2.53
2022-09-27T19:28:47.210Z,2.40
2022-09-27T19:31:20.298Z,3.28
2022-09-27T19:33:47.511Z,2.67
2022-09-27T19:36:16.433Z,3.25
2022-09-27T19:38:42.857Z,3.15
2022-09-27T19:41:11.990Z,3.05
2022-09-27T19:43:38.578Z,2.67
2022-09-27T19:46:11.906Z,2.38
2022-09-27T19:48:38.742Z,2.50
2022-09-27T19:51:06.759Z,2.45
2022-09-27T19:53:34.543Z,2.67
2022-09-27T19:56:03.143Z,5.85
2022-09-27T19:58:31.099Z,3.58
2022-09-27T20:01:11.651Z,4.43
2022-09-27T20:03:40.921Z,3.17
2022-09-27T20:06:10.067Z,4.53
2022-09-27T20:08:36.505Z,4.38
2022-09-27T20:11:06.848Z,3.33
2022-09-27T20:13:34.964Z,3.22
2022-09-27T20:16:07.003Z,2.80
2022-09-27T20:18:33.599Z,3.20
2022-09-27T20:21:04.616Z,6.15
2022-09-27T20:23:33.014Z,4.28
2022-09-27T20:26:01.141Z,2.85
2022-09-27T20:28:28.043Z,2.92
2022-09-27T20:31:02.357Z,3.85
2022-09-27T20:33:41.231Z,3.60
2022-09-27T20:36:12.403Z,3.17
2022-09-27T20:38:43.255Z,3.80
2022-09-27T20:41:11.094Z,3.40
2022-09-27T20:43:38.382Z,2.90
2022-09-27T20:46:07.625Z,2.65
2022-09-27T20:48:34.474Z,2.53
2022-09-27T20:51:04.659Z,3.35
2022-09-27T20:53:32.506Z,2.95
2022-09-27T20:56:02.483Z,2.70
2022-09-27T20:58:30.631Z,2.28
2022-09-27T21:00:57.677Z,2.72
2022-09-27T21:03:24.339Z,2.55
2022-09-27T21:05:57.412Z,2.97
2022-09-27T21:08:24.466Z,4.10
2022-09-27T21:10:52.994Z,5.22
2022-09-27T21:13:19.811Z,5.15
2022-09-27T21:15:46.688Z,4.20
2022-09-27T21:18:14.172Z,5.07
2022-09-27T21:20:40.558Z,3.40
2022-09-27T21:23:06.955Z,4.45
2022-09-27T21:25:33.339Z,2.90
2022-09-27T21:27:59.730Z,2.80
2022-09-27T21:30:26.187Z,2.33
2022-09-27T21:32:54.790Z,1.73
2022-09-27T21:35:22.181Z,4.47
2022-09-27T21:37:48.787Z,5.60
2022-09-27T21:40:15.850Z,4.45
2022-09-27T21:42:42.289Z,14.55
2022-09-27T21:45:09.155Z,18.83
2022-09-27T21:47:35.520Z,15.73
2022-09-27T21:50:01.898Z,11.75
2022-09-27T21:52:28.263Z,4.43
2022-09-27T21:54:54.658Z,3.30
2022-09-27T21:57:21.002Z,1.88
2022-09-27T21:59:47.366Z,1.88
2022-09-27T22:02:13.805Z,1.60
2022-09-27T22:04:40.258Z,1.70
2022-09-27T22:07:06.602Z,1.75
2022-09-27T22:09:33.072Z,1.60
2022-09-27T22:11:59.545Z,1.52
2022-09-27T22:14:25.965Z,1.77
2022-09-27T22:16:52.315Z,1.20
2022-09-27T22:19:19.039Z,1.20
2022-09-27T22:21:45.684Z,1.40
2022-09-27T22:24:17.329Z,1.85
2022-09-27T22:26:49.939Z,1.95
2022-09-27T22:29:16.709Z,1.67
2022-09-27T22:31:43.631Z,1.55
2022-09-27T22:34:18.221Z,1.73
2022-09-27T22:36:44.613Z,1.15
2022-09-27T22:39:11.103Z,2.05
2022-09-27T22:41:38.117Z,1.30
2022-09-27T22:44:04.585Z,1.60
2022-09-27T22:46:31.098Z,2.25
2022-09-27T22:48:57.608Z,1.90
2022-09-27T22:51:23.951Z,1.70
2022-09-27T22:53:50.368Z,1.90
2022-09-27T22:56:18.899Z,1.98
2022-09-27T22:58:47.188Z,1.67
2022-09-27T23:01:20.030Z,1.88
2022-09-27T23:03:48.118Z,2.25
2022-09-27T23:06:16.308Z,1.60
2022-09-27T23:08:43.012Z,2.35
2022-09-27T23:11:12.452Z,2.33
2022-09-27T23:13:41.621Z,2.25
2022-09-27T23:16:10.739Z,2.40
2022-09-27T23:18:38.141Z,2.00
2022-09-27T23:21:08.185Z,1.95
2022-09-27T23:23:36.482Z,2.17
2022-09-27T23:26:05.837Z,2.45
2022-09-27T23:28:33.157Z,2.95
2022-09-27T23:31:08.139Z,2.95
2022-09-27T23:33:40.298Z,2.50
2022-09-27T23:36:14.908Z,3.10
2022-09-27T23:38:41.765Z,3.30
2022-09-27T23:41:08.363Z,2.88
2022-09-27T23:43:36.024Z,3.30
2022-09-27T23:46:04.202Z,3.30
2022-09-27T23:48:30.560Z,3.78
2022-09-27T23:50:57.190Z,3.92
2022-09-27T23:53:23.852Z,3.40
2022-09-27T23:56:05.757Z,4.15
2022-09-27T23:58:33.807Z,3.95
